Time;durP1;ratioP1;P1;durP2;ratioP2;P2;SDS_P1;SDS_P2;PMS_P1;PMS_P2;Temp;Humidity;BMP_temperature;BMP_pressure;BME280_temperature;BME280_humidity;BME280_pressure;Samples;Min_cycle;Max_cycle;Signal;HPM_P1;HPM_P2
2022/05/11 00:01:46;;;;;;;8.57;5.68;;;;;;;15.66;76.78;100661.63;5133411;27;20038;-71
2022/05/11 00:04:12;;;;;;;8.50;5.43;;;;;;;15.64;77.25;100666.38;5131527;27;20023;-71
2022/05/11 00:06:38;;;;;;;8.05;5.80;;;;;;;15.60;77.88;100665.81;5133039;27;20015;-72
2022/05/11 00:09:06;;;;;;;8.73;5.57;;;;;;;15.54;77.97;100655.63;5131449;27;20099;-71
2022/05/11 00:11:32;;;;;;;7.65;4.93;;;;;;;15.54;77.79;100660.19;5132944;27;20019;-71
2022/05/11 00:13:58;;;;;;;9.73;5.50;;;;;;;15.46;78.01;100655.59;5132686;27;20068;-71
2022/05/11 00:16:25;;;;;;;8.30;5.45;;;;;;;15.47;77.59;100659.97;5132515;27;20106;-71
2022/05/11 00:18:50;;;;;;;9.65;6.13;;;;;;;15.44;78.21;100663.00;5132775;27;20498;-72
2022/05/11 00:21:16;;;;;;;6.47;5.53;;;;;;;15.39;78.33;100654.53;5132371;27;20023;-71
2022/05/11 00:23:41;;;;;;;6.50;5.88;;;;;;;15.23;78.52;100627.34;5132546;27;20019;-71
2022/05/11 00:26:07;;;;;;;8.38;5.28;;;;;;;15.32;78.97;100655.28;5132157;27;20479;-72
2022/05/11 00:28:33;;;;;;;5.85;5.22;;;;;;;15.19;79.23;100639.44;5132266;27;20023;-71
2022/05/11 00:30:58;;;;;;;8.80;5.65;;;;;;;15.24;79.95;100652.47;5132470;27;20034;-71
2022/05/11 00:33:24;;;;;;;6.97;5.53;;;;;;;15.16;80.16;100650.56;5132156;27;20121;-72
2022/05/11 00:35:51;;;;;;;9.93;5.60;;;;;;;15.14;80.25;100649.88;5132109;27;20089;-72
2022/05/11 00:38:19;;;;;;;6.30;5.68;;;;;;;15.12;80.30;100648.34;5130481;27;20023;-71
2022/05/11 00:40:50;;;;;;;6.25;5.55;;;;;;;15.08;80.91;100653.19;5132013;27;20630;-71
2022/05/11 00:43:25;;;;;;;7.32;5.60;;;;;;;14.99;81.56;100646.00;5131703;27;20023;-71
2022/05/11 00:45:50;;;;;;;9.00;6.03;;;;;;;15.01;81.45;100651.25;5129050;27;20165;-72
2022/05/11 00:51:11;;;;;;;9.00;6.25;;;;;;;14.89;81.30;100652.50;5131794;27;20104;-72
2022/05/11 00:53:40;;;;;;;8.45;6.35;;;;;;;14.90;81.48;100665.84;5129564;27;20043;-71
2022/05/11 00:56:06;;;;;;;8.27;6.07;;;;;;;14.81;81.51;100658.69;5127838;27;20118;-71
2022/05/11 00:58:48;;;;;;;7.72;6.68;;;;;;;14.80;81.74;100661.53;5131722;27;20027;-71
2022/05/11 01:01:14;;;;;;;8.95;6.75;;;;;;;14.73;81.65;100652.31;5129830;27;20062;-71
2022/05/11 01:04:05;;;;;;;8.68;6.85;;;;;;;14.65;81.94;100644.16;5130177;27;20045;-71
2022/05/11 01:06:32;;;;;;;8.02;6.72;;;;;;;14.62;81.70;100641.75;5131927;27;20555;-71
2022/05/11 01:09:00;;;;;;;7.15;6.45;;;;;;;14.63;82.07;100652.41;5131536;27;20099;-72
2022/05/11 01:11:26;;;;;;;8.02;6.93;;;;;;;14.57;82.80;100646.78;5131427;27;20038;-71
2022/05/11 01:13:52;;;;;;;8.40;7.10;;;;;;;14.53;82.54;100637.25;5131153;27;20045;-71
2022/05/11 01:16:18;;;;;;;10.13;7.25;;;;;;;14.50;83.07;100640.25;5129777;27;20019;-71
2022/05/11 01:18:44;;;;;;;10.18;6.95;;;;;;;14.51;83.25;100650.09;5129925;27;20068;-71
2022/05/11 01:21:10;;;;;;;8.02;7.22;;;;;;;14.47;83.74;100656.75;5131148;27;20030;-71
2022/05/11 01:23:46;;;;;;;7.07;6.38;;;;;;;14.42;83.17;100646.44;5131265;27;20374;-71
2022/05/11 01:26:15;;;;;;;7.90;7.07;;;;;;;14.37;84.24;100640.63;5131014;27;20610;-71
2022/05/11 01:28:43;;;;;;;9.88;7.07;;;;;;;14.35;84.00;100648.03;5130897;27;20026;-71
2022/05/11 01:31:11;;;;;;;10.18;7.50;;;;;;;14.30;84.29;100650.34;5131050;27;20035;-71
2022/05/11 01:33:39;;;;;;;9.10;7.25;;;;;;;14.28;85.29;100646.94;5131340;27;20474;-71
2022/05/11 01:36:04;;;;;;;10.70;7.32;;;;;;;14.24;85.53;100655.47;5129452;27;20031;-71
2022/05/11 01:38:42;;;;;;;11.20;7.63;;;;;;;14.18;84.99;100650.66;5131003;27;20033;-71
2022/05/11 01:41:10;;;;;;;9.93;7.47;;;;;;;14.14;85.22;100651.94;5131087;27;20106;-71
2022/05/11 01:43:39;;;;;;;13.98;8.02;;;;;;;14.09;85.35;100656.94;5130946;27;20023;-71
2022/05/11 01:46:05;;;;;;;10.50;7.68;;;;;;;14.06;85.44;100658.06;5130807;27;20432;-71
2022/05/11 01:48:31;;;;;;;9.98;7.28;;;;;;;13.99;85.82;100656.97;5129910;27;20569;-71
2022/05/11 01:50:57;;;;;;;10.52;7.68;;;;;;;13.93;85.79;100654.88;5130841;27;20023;-70
2022/05/11 01:53:22;;;;;;;9.60;7.68;;;;;;;13.89;85.86;100649.94;5130801;27;20058;-71
2022/05/11 01:55:48;;;;;;;11.07;7.40;;;;;;;13.86;86.56;100647.53;5129359;27;20439;-71
2022/05/11 01:58:15;;;;;;;9.73;7.57;;;;;;;13.82;85.75;100664.97;5130706;27;20031;-71
2022/05/11 02:00:43;;;;;;;10.35;7.20;;;;;;;13.75;86.62;100656.66;5130164;27;20144;-69
2022/05/11 02:03:09;;;;;;;9.43;7.60;;;;;;;13.71;86.63;100663.34;5129554;28;20076;-66
2022/05/11 02:08:19;;;;;;;8.27;7.13;;;;;;;13.61;86.80;100659.81;5130798;28;20045;-66
2022/05/11 02:10:45;;;;;;;8.90;7.50;;;;;;;13.63;86.28;100668.59;5131040;27;20047;-66
2022/05/11 02:13:11;;;;;;;10.30;7.93;;;;;;;13.50;87.50;100649.19;5129712;27;20534;-66
2022/05/11 02:15:36;;;;;;;11.00;7.45;;;;;;;13.56;87.49;100670.16;5130950;27;20023;-66
2022/05/11 02:18:06;;;;;;;9.45;7.40;;;;;;;13.53;87.77;100673.16;5131027;27;20035;-66
2022/05/11 02:20:33;;;;;;;9.70;7.63;;;;;;;13.44;87.84;100650.63;5129609;28;20068;-66
2022/05/11 02:22:59;;;;;;;8.73;6.82;;;;;;;13.46;87.95;100661.25;5130815;27;20035;-66
2022/05/11 02:25:24;;;;;;;8.60;7.60;;;;;;;13.42;87.67;100665.25;5129469;28;20114;-66
2022/05/11 02:27:51;;;;;;;8.68;7.35;;;;;;;13.38;87.01;100656.59;5130655;27;20027;-66
2022/05/11 02:30:23;;;;;;;10.57;7.43;;;;;;;13.36;87.67;100658.59;5130685;27;20366;-66
2022/05/11 02:32:49;;;;;;;10.18;8.05;;;;;;;13.31;87.52;100660.84;5130828;27;20641;-66
2022/05/11 02:35:16;;;;;;;11.10;7.53;;;;;;;13.28;88.53;100662.97;5130447;27;20038;-66
2022/05/11 02:37:43;;;;;;;9.90;8.10;;;;;;;13.17;88.39;100652.34;5130592;27;20030;-66
2022/05/11 02:40:11;;;;;;;8.70;7.60;;;;;;;13.21;87.72;100664.53;5130299;27;20690;-66
2022/05/11 02:42:37;;;;;;;15.65;7.90;;;;;;;13.18;88.07;100659.44;5130729;27;20027;-66
2022/05/11 02:45:03;;;;;;;10.38;8.15;;;;;;;13.11;87.60;100658.31;5130511;27;20482;-66
2022/05/11 02:47:29;;;;;;;8.93;7.80;;;;;;;13.13;88.04;100669.81;5130356;27;20046;-66
2022/05/11 02:49:54;;;;;;;10.85;8.30;;;;;;;13.09;88.48;100655.75;5130322;27;20054;-66
2022/05/11 02:52:20;;;;;;;9.00;8.00;;;;;;;13.07;87.40;100656.91;5130263;27;20043;-66
2022/05/11 02:54:46;;;;;;;12.63;8.02;;;;;;;13.06;88.44;100655.22;5130408;27;20035;-66
2022/05/11 02:57:16;;;;;;;10.60;8.30;;;;;;;13.02;88.73;100660.03;5130456;27;20406;-66
2022/05/11 02:59:43;;;;;;;13.10;7.43;;;;;;;13.01;88.17;100668.25;5130669;27;20030;-66
2022/05/11 03:02:09;;;;;;;10.30;7.90;;;;;;;12.95;87.57;100658.84;5129930;27;20505;-66
2022/05/11 03:04:35;;;;;;;8.57;7.03;;;;;;;12.87;87.42;100652.47;5130122;27;20031;-66
2022/05/11 03:07:00;;;;;;;8.80;7.53;;;;;;;12.95;87.60;100666.06;5130474;27;20042;-66
2022/05/11 03:09:26;;;;;;;10.13;7.80;;;;;;;12.86;87.43;100656.16;5128904;27;20038;-66
2022/05/11 03:11:51;;;;;;;10.00;8.60;;;;;;;12.88;88.05;100656.88;5129613;27;20035;-66
2022/05/11 03:14:17;;;;;;;11.27;8.95;;;;;;;12.87;89.07;100661.38;5133450;27;20059;-66
2022/05/11 03:16:43;;;;;;;10.48;8.48;;;;;;;12.84;88.59;100666.22;5134029;27;20103;-66
2022/05/11 03:19:09;;;;;;;13.45;7.72;;;;;;;12.77;89.17;100648.94;5134085;27;20038;-66
2022/05/11 03:21:34;;;;;;;11.15;7.72;;;;;;;12.78;88.33;100667.63;5133841;27;20027;-66
2022/05/11 03:24:00;;;;;;;10.10;8.15;;;;;;;12.66;88.75;100640.97;5134186;27;20019;-67
2022/05/11 03:26:27;;;;;;;13.68;8.25;;;;;;;12.71;88.79;100658.41;5133386;27;20034;-65
2022/05/11 03:28:52;;;;;;;9.57;7.05;;;;;;;12.68;88.13;100665.91;5134056;27;20039;-66
2022/05/11 03:31:19;;;;;;;17.17;9.60;;;;;;;12.63;88.09;100663.66;5133317;27;20031;-66
2022/05/11 03:36:29;;;;;;;10.30;7.57;;;;;;;12.57;88.81;100666.03;5132488;27;20050;-66
2022/05/11 03:38:55;;;;;;;14.40;8.27;;;;;;;12.64;88.97;100677.97;5133629;27;20491;-66
2022/05/11 03:41:20;;;;;;;10.95;7.95;;;;;;;12.64;89.24;100680.66;5133682;27;20035;-66
2022/05/11 03:43:46;;;;;;;9.82;8.00;;;;;;;12.61;89.47;100675.53;5133469;27;20034;-66
2022/05/11 03:46:11;;;;;;;15.10;8.80;;;;;;;12.65;89.13;100679.66;5133563;27;20031;-66
2022/05/11 03:48:37;;;;;;;13.93;8.18;;;;;;;12.62;89.33;100671.84;5133860;27;20023;-66
2022/05/11 03:51:04;;;;;;;12.75;8.57;;;;;;;12.56;89.78;100659.81;5133536;27;20380;-66
2022/05/11 03:53:31;;;;;;;10.77;8.60;;;;;;;12.63;90.74;100669.03;5133289;27;20039;-66
2022/05/11 03:55:56;;;;;;;10.77;8.93;;;;;;;12.69;90.77;100673.84;5133440;27;20042;-66
2022/05/11 03:58:22;;;;;;;12.02;8.70;;;;;;;12.78;90.39;100666.78;5133236;27;20032;-67
2022/05/11 04:00:48;;;;;;;14.27;9.52;;;;;;;12.85;91.14;100674.16;5133313;27;20023;-64
2022/05/11 04:03:13;;;;;;;11.90;8.85;;;;;;;12.95;91.33;100679.53;5133212;27;20046;-65
2022/05/11 04:05:39;;;;;;;12.68;9.05;;;;;;;13.01;91.52;100673.63;5133279;27;20049;-65
2022/05/11 04:08:05;;;;;;;14.00;9.52;;;;;;;13.14;90.98;100672.34;5133070;27;20027;-65
2022/05/11 04:10:30;;;;;;;15.07;8.75;;;;;;;13.25;90.64;100674.91;5133292;27;20023;-65
2022/05/11 04:12:56;;;;;;;14.35;10.25;;;;;;;13.42;90.38;100676.03;5133198;27;20037;-65
2022/05/11 04:15:21;;;;;;;21.25;11.73;;;;;;;13.53;90.48;100665.06;5132902;27;20068;-65
2022/05/11 04:17:47;;;;;;;22.45;11.75;;;;;;;13.70;90.56;100680.47;5132938;27;20095;-65
2022/05/11 04:20:16;;;;;;;18.25;10.98;;;;;;;13.84;89.98;100671.09;5133010;27;20390;-65
2022/05/11 04:22:42;;;;;;;21.52;11.85;;;;;;;13.95;88.95;100663.66;5131381;27;20371;-65
2022/05/11 04:25:10;;;;;;;26.45;13.80;;;;;;;14.19;87.15;100682.88;5133112;27;20030;-65
2022/05/11 04:27:36;;;;;;;19.77;13.32;;;;;;;14.34;85.18;100689.50;5132720;27;20044;-65
2022/05/11 04:30:03;;;;;;;20.27;13.45;;;;;;;14.53;84.56;100681.31;5132969;27;20023;-65
2022/05/11 04:32:29;;;;;;;20.48;12.52;;;;;;;14.70;82.69;100683.19;5132936;27;20023;-65
2022/05/11 04:34:54;;;;;;;21.45;12.20;;;;;;;14.83;80.89;100680.13;5133010;27;20035;-65
2022/05/11 04:37:20;;;;;;;19.33;12.80;;;;;;;15.00;80.22;100682.00;5132300;27;20046;-65
2022/05/11 04:39:45;;;;;;;22.35;12.38;;;;;;;15.21;79.97;100691.47;5132448;27;20034;-65
2022/05/11 04:42:11;;;;;;;20.73;11.85;;;;;;;15.39;78.53;100692.38;5132727;27;20027;-65
2022/05/11 04:44:36;;;;;;;20.25;11.07;;;;;;;15.50;77.54;100693.94;5132291;27;20019;-69
2022/05/11 04:47:10;;;;;;;13.40;9.80;;;;;;;15.66;76.37;100692.22;5131965;27;20441;-69
2022/05/11 04:49:35;;;;;;;16.15;10.25;;;;;;;15.86;74.32;100699.13;5132298;27;20088;-70
2022/05/11 04:52:08;;;;;;;20.30;10.10;;;;;;;16.03;73.29;100701.94;5130828;27;20035;-70
2022/05/11 04:54:49;;;;;;;16.42;10.27;;;;;;;16.15;73.03;100689.84;5122154;27;20023;-70
2022/05/11 04:57:15;;;;;;;20.92;10.93;;;;;;;16.35;72.09;100702.09;5130072;27;20046;-70
2022/05/11 04:59:41;;;;;;;16.65;10.10;;;;;;;16.59;71.40;100696.81;5131545;27;20502;-70
2022/05/11 05:02:14;;;;;;;15.55;9.63;;;;;;;16.79;71.08;100693.66;5130093;27;20019;-70
2022/05/11 05:04:39;;;;;;;25.63;11.57;;;;;;;16.95;68.93;100698.28;5132064;27;20054;-70
2022/05/11 05:07:04;;;;;;;16.88;10.35;;;;;;;17.12;68.48;100702.72;5132371;27;20475;-70
2022/05/11 05:09:30;;;;;;;21.63;11.30;;;;;;;17.29;67.64;100699.84;5131785;27;20114;-70
2022/05/11 05:11:55;;;;;;;14.88;10.15;;;;;;;17.53;67.90;100699.91;5131403;27;20058;-71
2022/05/11 05:14:21;;;;;;;20.50;11.70;;;;;;;17.72;66.62;100709.53;5131748;27;20306;-70
2022/05/11 05:16:48;;;;;;;18.75;10.43;;;;;;;17.94;66.28;100711.56;5131808;27;20092;-70
2022/05/11 05:19:14;;;;;;;19.17;10.82;;;;;;;18.08;65.60;100700.84;5131998;27;20022;-69
2022/05/11 05:21:39;;;;;;;18.70;9.93;;;;;;;18.30;64.77;100715.53;5132004;27;20031;-70
2022/05/11 05:24:05;;;;;;;14.50;10.20;;;;;;;18.43;64.18;100721.31;5131892;27;20083;-70
2022/05/11 05:26:31;;;;;;;15.68;10.07;;;;;;;18.44;63.30;100703.97;5130423;27;20104;-70
2022/05/11 05:31:40;;;;;;;16.52;10.80;;;;;;;18.70;63.10;100717.31;5131215;27;20038;-70
2022/05/11 05:34:06;;;;;;;19.60;9.98;;;;;;;18.59;62.89;100685.91;5131116;27;20035;-70
2022/05/11 05:36:36;;;;;;;16.55;10.30;;;;;;;18.84;62.98;100714.69;5128254;27;20022;-69
2022/05/11 05:39:03;;;;;;;11.93;8.95;;;;;;;18.96;62.88;100718.66;5131548;27;20019;-72
2022/05/11 05:41:29;;;;;;;16.60;10.18;;;;;;;19.07;61.80;100712.84;5131241;27;20027;-71
2022/05/11 05:43:55;;;;;;;16.83;9.82;;;;;;;19.11;61.60;100711.44;5131682;27;20490;-70
2022/05/11 05:46:22;;;;;;;18.67;9.13;;;;;;;19.21;60.70;100705.75;5131197;27;20058;-70
2022/05/11 05:48:48;;;;;;;16.45;9.52;;;;;;;19.42;59.93;100716.88;5130374;27;20027;-70
2022/05/11 05:51:15;;;;;;;20.88;9.25;;;;;;;19.52;59.40;100710.16;5130304;27;20027;-70
2022/05/11 05:53:42;;;;;;;14.68;8.77;;;;;;;19.69;58.84;100716.31;5130422;27;20039;-69
2022/05/11 05:56:09;;;;;;;13.95;7.60;;;;;;;19.87;58.35;100719.56;5131582;27;20035;-69
2022/05/11 05:58:35;;;;;;;14.10;7.80;;;;;;;20.06;58.13;100717.13;5131779;27;20051;-69
2022/05/11 06:01:00;;;;;;;15.95;8.50;;;;;;;20.17;57.09;100722.16;5131901;27;20034;-69
2022/05/11 06:03:29;;;;;;;17.67;8.00;;;;;;;20.31;57.49;100714.19;5130458;27;20056;-68
2022/05/11 06:05:55;;;;;;;10.77;6.78;;;;;;;20.52;55.84;100715.13;5131802;27;20019;-69
2022/05/11 06:08:21;;;;;;;13.27;7.35;;;;;;;20.74;54.19;100716.03;5130127;28;20046;-69
2022/05/11 06:10:48;;;;;;;12.70;7.22;;;;;;;20.81;53.27;100706.06;5131691;27;20352;-69
2022/05/11 06:13:15;;;;;;;10.98;6.53;;;;;;;20.92;52.96;100720.03;5131730;27;20403;-69
2022/05/11 06:15:41;;;;;;;9.00;5.70;;;;;;;20.91;53.71;100712.06;5131434;27;20028;-70
2022/05/11 06:18:09;;;;;;;12.02;6.82;;;;;;;21.02;53.28;100717.06;5131277;27;20483;-70
2022/05/11 06:20:35;;;;;;;13.50;6.63;;;;;;;21.15;53.31;100723.50;5131656;27;20034;-70
2022/05/11 06:23:03;;;;;;;18.05;7.68;;;;;;;21.28;53.14;100729.09;5131921;27;20076;-70
2022/05/11 06:25:30;;;;;;;13.73;6.80;;;;;;;21.44;53.07;100717.09;5131610;27;20027;-70
2022/05/11 06:27:58;;;;;;;9.10;6.13;;;;;;;21.61;52.36;100723.97;5131447;27;20047;-70
2022/05/11 06:30:24;;;;;;;10.57;5.10;;;;;;;21.77;50.80;100721.00;5129844;28;20035;-70
2022/05/11 06:32:50;;;;;;;12.80;5.82;;;;;;;21.82;50.76;100705.72;5131244;27;20793;-70
2022/05/11 06:35:16;;;;;;;7.68;4.65;;;;;;;21.93;50.25;100715.25;5131700;27;20027;-70
2022/05/11 06:37:41;;;;;;;7.07;5.13;;;;;;;22.12;50.00;100720.84;5131904;27;20046;-70
2022/05/11 06:40:09;;;;;;;10.75;4.95;;;;;;;22.26;49.46;100719.94;5131521;27;20027;-70
2022/05/11 06:42:34;;;;;;;7.55;4.03;;;;;;;22.38;47.56;100701.06;5131989;27;20084;-70
2022/05/11 06:45:00;;;;;;;8.15;3.83;;;;;;;22.55;47.83;100707.06;5131643;27;20078;-70
2022/05/11 06:47:25;;;;;;;10.02;4.68;;;;;;;22.67;47.92;100703.59;5134981;27;20505;-70
2022/05/11 06:49:51;;;;;;;5.15;3.60;;;;;;;22.80;47.47;100709.09;5135534;27;20027;-70
2022/05/11 06:52:17;;;;;;;9.13;3.85;;;;;;;22.99;45.50;100712.97;5134136;27;20031;-70
2022/05/11 07:00:12;;;;;;;4.43;3.17;;;;;;;23.33;46.19;100693.69;5123123;27;20051;-70
2022/05/11 07:02:37;;;;;;;6.60;3.50;;;;;;;23.50;45.75;100706.78;5135626;27;20029;-70
2022/05/11 07:05:05;;;;;;;6.43;3.42;;;;;;;23.67;44.90;100694.38;5135281;27;20014;-70
2022/05/11 07:07:31;;;;;;;4.32;3.55;;;;;;;23.92;42.88;100700.06;5134317;27;20027;-70
2022/05/11 07:09:56;;;;;;;8.45;3.60;;;;;;;24.03;43.78;100703.06;5135553;27;20398;-70
2022/05/11 07:12:25;;;;;;;6.97;3.45;;;;;;;24.22;44.19;100704.09;5135637;27;20047;-70
2022/05/11 07:14:57;;;;;;;7.22;3.28;;;;;;;24.30;43.46;100688.25;5135615;27;20098;-70
2022/05/11 07:17:30;;;;;;;4.85;3.38;;;;;;;24.55;43.26;100699.38;5135333;27;20019;-70
2022/05/11 07:19:57;;;;;;;5.88;3.13;;;;;;;24.70;42.44;100690.91;5130235;27;20037;-70
2022/05/11 07:22:23;;;;;;;5.40;3.47;;;;;;;24.78;42.13;100696.13;5135450;27;20467;-69
2022/05/11 07:24:48;;;;;;;6.72;3.30;;;;;;;24.87;42.15;100692.09;5135327;27;20033;-70
2022/05/11 07:27:14;;;;;;;7.65;3.35;;;;;;;25.01;42.01;100694.56;5135269;27;20080;-70
2022/05/11 07:29:39;;;;;;;6.35;3.42;;;;;;;25.08;41.60;100683.56;5135666;27;20183;-70
2022/05/11 07:32:06;;;;;;;4.75;2.78;;;;;;;25.10;40.98;100665.78;5135301;27;20030;-70
2022/05/11 07:34:31;;;;;;;13.85;3.90;;;;;;;25.28;40.18;100685.09;5134289;27;20034;-70
2022/05/11 07:36:57;;;;;;;5.93;3.20;;;;;;;25.38;40.22;100690.16;5135394;27;20409;-70
2022/05/11 07:39:23;;;;;;;7.15;3.90;;;;;;;25.52;39.80;100678.00;5133535;27;20042;-69
2022/05/11 07:41:50;;;;;;;9.18;3.30;;;;;;;25.72;39.61;100676.78;5133981;27;20031;-70
2022/05/11 07:44:16;;;;;;;5.88;3.10;;;;;;;25.95;39.38;100684.41;5135514;27;20495;-70
2022/05/11 07:46:43;;;;;;;10.38;3.33;;;;;;;26.07;38.14;100688.97;5133919;27;20027;-70
2022/05/11 07:49:09;;;;;;;5.28;2.88;;;;;;;26.11;37.96;100686.59;5135036;27;20027;-70
2022/05/11 07:51:36;;;;;;;5.45;3.13;;;;;;;26.09;37.80;100689.56;5133763;27;20084;-70
2022/05/11 07:54:02;;;;;;;4.75;3.13;;;;;;;26.12;37.82;100688.31;5133103;27;20051;-70
2022/05/11 08:01:57;;;;;;;4.20;2.97;;;;;;;26.34;37.36;100682.13;5131372;27;20521;-70
2022/05/11 08:04:23;;;;;;;5.40;3.50;;;;;;;26.42;37.26;100687.34;5134522;27;20050;-70
2022/05/11 08:06:49;;;;;;;6.57;2.97;;;;;;;26.54;37.00;100679.19;5133651;27;20031;-70
2022/05/11 08:09:14;;;;;;;5.85;2.75;;;;;;;26.63;36.72;100680.56;5132919;27;20026;-70
2022/05/11 08:11:40;;;;;;;4.22;2.58;;;;;;;26.80;34.53;100681.63;5134573;27;20076;-71
2022/05/11 08:14:05;;;;;;;4.30;2.78;;;;;;;26.81;34.13;100669.53;5133974;27;20069;-70
2022/05/11 08:16:31;;;;;;;7.40;2.78;;;;;;;26.95;33.34;100684.00;5133207;27;20649;-71
2022/05/11 08:18:56;;;;;;;8.55;3.10;;;;;;;27.02;32.25;100690.25;5132540;27;20031;-70
2022/05/11 08:21:23;;;;;;;3.78;2.15;;;;;;;27.10;32.12;100673.38;5133841;27;20464;-70
2022/05/11 08:23:48;;;;;;;4.13;2.50;;;;;;;27.20;31.78;100674.50;5133199;27;20027;-66
2022/05/11 08:26:14;;;;;;;7.45;2.70;;;;;;;27.24;31.84;100680.44;5132537;27;20042;-66
2022/05/11 08:28:40;;;;;;;8.32;2.92;;;;;;;27.30;32.08;100690.50;5132647;27;20023;-66
2022/05/11 08:33:49;;;;;;;6.60;2.83;;;;;;;27.42;32.15;100677.59;5132784;27;20034;-67
2022/05/11 08:36:18;;;;;;;6.45;2.92;;;;;;;27.42;31.26;100683.13;5130921;27;20387;-66
2022/05/11 08:38:48;;;;;;;5.25;2.55;;;;;;;27.46;31.56;100687.06;5132292;27;20035;-67
2022/05/11 08:41:19;;;;;;;11.02;2.50;;;;;;;27.53;31.94;100688.66;5130999;27;20075;-67
2022/05/11 08:43:47;;;;;;;8.80;2.47;;;;;;;27.58;31.19;100696.22;5132418;27;20383;-67
2022/05/11 08:46:47;;;;;;;4.43;2.30;;;;;;;27.63;30.91;100683.41;5131823;27;20088;-66
2022/05/11 08:49:47;;;;;;;4.28;2.00;;;;;;;27.73;30.95;100697.44;5129413;27;20023;-66
2022/05/11 08:52:40;;;;;;;11.95;3.08;;;;;;;27.69;30.93;100689.88;5131554;27;20039;-67
2022/05/11 08:55:23;;;;;;;7.85;2.72;;;;;;;27.71;31.20;100691.34;5130787;27;20035;-67
2022/05/11 08:57:50;;;;;;;3.88;2.40;;;;;;;27.61;30.95;100669.03;5131832;27;20027;-67
2022/05/11 09:00:18;;;;;;;8.13;2.47;;;;;;;27.73;30.08;100689.19;5132061;27;20035;-66
2022/05/11 09:02:56;;;;;;;4.35;2.47;;;;;;;27.72;30.23;100683.91;5131916;27;20027;-67
2022/05/11 09:05:28;;;;;;;6.57;2.42;;;;;;;27.72;30.72;100687.50;5130086;27;20024;-67
2022/05/11 09:07:55;;;;;;;4.40;2.47;;;;;;;27.80;30.67;100692.69;5131633;27;20042;-67
2022/05/11 09:10:25;;;;;;;6.72;2.50;;;;;;;27.83;30.72;100700.47;5131628;27;20059;-67
2022/05/11 09:12:53;;;;;;;6.85;2.50;;;;;;;27.81;30.24;100696.28;5131789;27;20589;-67
2022/05/11 09:15:19;;;;;;;4.25;2.42;;;;;;;27.72;30.59;100690.25;5131462;27;20122;-67
2022/05/11 09:17:45;;;;;;;5.60;2.60;;;;;;;27.75;30.50;100714.59;5131465;27;20019;-67
2022/05/11 09:20:13;;;;;;;6.05;2.65;;;;;;;27.66;31.17;100702.22;5131034;27;20502;-67
2022/05/11 09:22:59;;;;;;;4.00;2.20;;;;;;;27.65;31.38;100694.19;5131219;27;20530;-67
2022/05/11 09:25:28;;;;;;;3.22;2.55;;;;;;;27.59;31.07;100698.75;5129328;27;20037;-66
2022/05/11 09:28:15;;;;;;;7.00;2.63;;;;;;;27.54;31.83;100701.38;5129079;27;20356;-67
2022/05/11 09:31:05;;;;;;;5.20;2.50;;;;;;;27.52;30.54;100702.69;5131111;27;20500;-67
2022/05/11 09:33:42;;;;;;;4.55;2.58;;;;;;;27.50;30.92;100696.56;5128544;27;20019;-67
2022/05/11 09:36:10;;;;;;;3.53;2.58;;;;;;;27.41;31.49;100689.72;5123877;27;20415;-67
2022/05/11 09:38:42;;;;;;;5.63;2.88;;;;;;;27.44;31.94;100689.25;5126726;27;20103;-67
2022/05/11 09:41:20;;;;;;;5.75;2.83;;;;;;;27.48;32.25;100704.22;5129179;27;20068;-67
2022/05/11 09:43:54;;;;;;;4.43;2.30;;;;;;;27.55;31.89;100699.44;5130966;27;20038;-66
2022/05/11 09:46:33;;;;;;;3.10;2.50;;;;;;;27.55;32.12;100696.69;5131102;27;20072;-66
2022/05/11 09:49:10;;;;;;;4.75;2.70;;;;;;;27.51;31.75;100688.06;5129221;27;20047;-67
2022/05/11 09:51:39;;;;;;;3.17;2.53;;;;;;;27.59;31.84;100693.22;5130964;27;20054;-66
2022/05/11 09:54:30;;;;;;;6.82;3.33;;;;;;;27.53;32.34;100680.38;5130843;27;20426;-67
2022/05/11 09:56:56;;;;;;;5.78;3.00;;;;;;;27.61;31.92;100682.81;5130567;27;20176;-67
2022/05/11 09:59:22;;;;;;;6.38;3.50;;;;;;;27.67;32.23;100684.63;5130837;27;20110;-67
2022/05/11 10:01:51;;;;;;;6.70;3.88;;;;;;;27.72;32.28;100681.13;5131154;27;20039;-66
2022/05/11 10:04:22;;;;;;;6.05;2.97;;;;;;;27.76;32.19;100677.69;5130747;27;20023;-66
2022/05/11 10:06:54;;;;;;;4.00;3.53;;;;;;;27.84;32.37;100685.63;5130868;27;20021;-66
2022/05/11 10:09:27;;;;;;;11.07;4.32;;;;;;;27.89;31.94;100684.94;5129311;28;20038;-66
2022/05/11 10:11:53;;;;;;;10.50;3.85;;;;;;;27.91;31.73;100686.38;5129487;28;20126;-67
2022/05/11 10:23:22;;;;;;;4.63;2.85;;;;;;;27.82;31.36;100676.72;5134558;27;20053;-67
2022/05/11 10:25:58;;;;;;;5.90;3.88;;;;;;;27.75;31.21;100670.50;5132167;27;20056;-66
2022/05/11 10:28:38;;;;;;;7.43;3.50;;;;;;;27.76;31.29;100669.41;5134452;27;20102;-66
2022/05/11 10:31:42;;;;;;;3.97;2.42;;;;;;;27.72;31.68;100662.69;5134622;27;20034;-67
2022/05/11 10:34:26;;;;;;;6.40;2.75;;;;;;;27.73;31.78;100653.34;5131394;27;20030;-66
2022/05/11 10:37:07;;;;;;;6.32;2.78;;;;;;;27.78;31.61;100666.41;5134480;27;20718;-66
2022/05/11 10:40:15;;;;;;;7.93;3.15;;;;;;;27.68;31.40;100633.09;5133182;27;20030;-66
2022/05/11 10:42:46;;;;;;;4.70;2.72;;;;;;;27.84;31.41;100655.28;5101349;27;20035;-66
2022/05/11 10:45:14;;;;;;;7.30;2.72;;;;;;;27.88;30.03;100648.25;5132791;27;20041;-66
2022/05/11 10:48:01;;;;;;;3.47;2.17;;;;;;;27.76;29.99;100643.78;5134198;27;20035;-67
2022/05/11 10:50:51;;;;;;;5.63;2.40;;;;;;;27.67;30.46;100640.53;5133372;27;20052;-66
2022/05/11 10:53:33;;;;;;;6.63;2.20;;;;;;;27.69;31.43;100632.84;5133504;27;20509;-66
2022/05/11 10:56:08;;;;;;;4.00;2.13;;;;;;;27.70;31.81;100641.97;5131101;27;20034;-66
2022/05/11 10:58:54;;;;;;;6.25;2.80;;;;;;;27.63;31.59;100633.78;5133801;27;20042;-67
2022/05/11 11:01:22;;;;;;;4.75;2.53;;;;;;;27.63;31.03;100622.75;5134085;27;20114;-67
2022/05/11 11:04:22;;;;;;;6.22;3.08;;;;;;;27.61;31.67;100635.97;5133812;27;20537;-66
2022/05/11 11:07:14;;;;;;;6.40;2.97;;;;;;;27.62;32.50;100637.63;5133980;27;20023;-66
2022/05/11 11:09:58;;;;;;;3.80;2.30;;;;;;;27.68;32.64;100625.66;5133750;27;20034;-67
2022/05/11 11:12:31;;;;;;;9.20;2.88;;;;;;;27.74;32.65;100635.75;5133244;27;20108;-67
2022/05/11 11:14:59;;;;;;;4.85;2.53;;;;;;;27.75;32.27;100626.38;5132331;27;20457;-67
2022/05/11 11:17:27;;;;;;;4.68;2.28;;;;;;;27.74;32.52;100618.34;5133372;27;20038;-68
2022/05/11 11:19:58;;;;;;;6.63;2.47;;;;;;;27.72;32.70;100620.50;5133993;27;20059;-67
2022/05/11 11:22:24;;;;;;;4.53;2.38;;;;;;;27.74;32.59;100615.59;5133359;27;20031;-68
2022/05/11 11:25:14;;;;;;;4.55;2.55;;;;;;;27.71;32.57;100622.44;5132404;27;20022;-68
2022/05/11 11:28:03;;;;;;;5.60;2.97;;;;;;;27.71;33.28;100614.16;5133417;27;20059;-68
2022/05/11 11:30:39;;;;;;;5.10;2.30;;;;;;;27.70;33.74;100617.97;5131487;27;20019;-68
2022/05/11 11:33:10;;;;;;;6.00;2.83;;;;;;;27.70;33.51;100617.16;5131123;27;20023;-67
2022/05/11 11:35:41;;;;;;;5.07;2.28;;;;;;;27.71;33.63;100613.31;5133346;27;20023;-67
2022/05/11 11:38:07;;;;;;;6.07;2.70;;;;;;;27.62;33.22;100604.56;5133277;27;20502;-67
2022/05/11 11:40:34;;;;;;;16.25;3.58;;;;;;;27.66;32.27;100622.28;5131753;27;20023;-67
2022/05/11 11:43:38;;;;;;;5.35;2.53;;;;;;;27.64;32.76;100610.69;5133326;27;20574;-67
2022/05/11 11:45:50;;;;;;;6.93;2.55;;;;;;;27.69;32.29;100604.44;5132618;27;20677;-67
2022/05/11 11:48:21;;;;;;;5.40;2.60;;;;;;;27.62;32.90;100596.28;5133084;27;20035;-67
2022/05/11 11:50:54;;;;;;;11.95;2.80;;;;;;;27.66;33.35;100607.69;5132875;27;20483;-67
2022/05/11 11:53:55;;;;;;;4.75;2.53;;;;;;;27.61;33.01;100610.31;5132433;27;20051;-67
2022/05/11 11:56:23;;;;;;;5.60;2.50;;;;;;;27.68;32.77;100608.28;5131369;27;20054;-67
2022/05/11 11:59:02;;;;;;;7.10;2.63;;;;;;;27.63;32.93;100606.22;5131235;27;20756;-67
2022/05/11 12:01:31;;;;;;;4.55;2.50;;;;;;;27.55;32.93;100600.22;5132642;27;20099;-67
2022/05/11 12:04:01;;;;;;;4.45;2.42;;;;;;;27.53;32.86;100600.47;5132690;27;20030;-67
2022/05/11 12:15:17;;;;;;;8.80;2.40;;;;;;;27.63;32.49;100577.84;5132860;27;20034;-67